»·PEaware :: FFT2079 KLAS-KSFO

FFT2079 :: KLAS-KSFO

FLIGHT INFORMATION

Flight Status: Arrived
Operator:
Frontier Airlines
More flights by this operator :: More flights under this callsign
Pilot: Andrew J. (13363)
Aircraft: AIRBUS A321
(A321)
More flights by this aircraft type
Origin: KLAS McCarran Intl
United States
Destination: KSFO San Francisco Intl
United States
More flights between these airports :: More routes between these airports
Route: SHEAD1 KENNO RUSME DYAMD5
File this flight plan on PilotEdge
Remarks:
Altitude:
(Current/Filed)
34,000ft
Speed:
(Current/Filed)
463kts
Departed: 02-Oct-20 07:41 PM
Arrived: 02-Oct-20 08:45 PM
Distance/Time
Traveled:
359nm/1:04
Distance/Time
To Go:
Arrived

Flight Plot

Page will automatically refresh every two minutes.

Flight plan parsing failed; only flown route is shown


Map Options




Map Legend


Flown Route
Filed Route
Departure Airport
Arrival Airport
Navaid (VOR, NDB)
Fix

Horizontal Profiles

Position Reports

Time Latitude Longitude Heading Altitude Ground
Speed
02-Oct-20 19:11 36.082178 -115.135775 303 2187ft 0kts
02-Oct-20 19:12 36.082178 -115.135775 303 2187ft 0kts
02-Oct-20 19:13 36.082178 -115.135775 303 2187ft 0kts
02-Oct-20 19:14 36.082178 -115.135775 303 2187ft 0kts
02-Oct-20 19:15 36.082178 -115.135775 303 2187ft 0kts
02-Oct-20 19:16 36.082178 -115.135775 303 2187ft 0kts
02-Oct-20 19:17 36.082178 -115.135775 303 2187ft 0kts
02-Oct-20 19:18 36.082178 -115.135775 303 2187ft 0kts
02-Oct-20 19:19 36.082178 -115.135775 303 2187ft 0kts
02-Oct-20 19:20 36.082178 -115.135775 303 2187ft 0kts
02-Oct-20 19:21 36.082178 -115.135775 303 2187ft 0kts
02-Oct-20 19:22 36.082178 -115.135775 303 2187ft 0kts
02-Oct-20 19:23 36.082178 -115.135775 303 2187ft 0kts
02-Oct-20 19:24 36.082178 -115.135775 303 2187ft 0kts
02-Oct-20 19:25 36.082178 -115.135775 303 2187ft 0kts
02-Oct-20 19:26 36.082178 -115.135775 303 2187ft 0kts
02-Oct-20 19:27 36.082178 -115.135775 303 2187ft 0kts
02-Oct-20 19:28 36.082178 -115.135775 303 2187ft 0kts
02-Oct-20 19:29 36.082178 -115.135775 303 2187ft 0kts
02-Oct-20 19:30 36.082178 -115.135775 303 2187ft 0kts
02-Oct-20 19:31 36.082136 -115.135696 303 2187ft 2kts
02-Oct-20 19:32 36.081830 -115.135074 297 2187ft 2kts
02-Oct-20 19:33 36.081729 -115.134373 238 2187ft 2kts
02-Oct-20 19:34 36.082012 -115.134098 214 2187ft 0kts
02-Oct-20 19:35 36.082012 -115.134098 214 2187ft 0kts
02-Oct-20 19:36 36.081058 -115.133873 160 2187ft 7kts
02-Oct-20 19:37 36.078417 -115.133685 149 2187ft 9kts
02-Oct-20 19:38 36.078305 -115.128862 89 2187ft 18kts
02-Oct-20 19:39 36.077735 -115.121791 129 2187ft 21kts
02-Oct-20 19:40 36.076425 -115.138427 269 2188ft 139kts
02-Oct-20 19:41 36.076474 -115.191941 270 3629ft 159kts
02-Oct-20 19:42 36.070775 -115.252017 229 4757ft 207kts
02-Oct-20 19:43 36.009446 -115.284206 200 6045ft 275kts
02-Oct-20 19:44 35.941061 -115.337596 225 7599ft 297kts
02-Oct-20 19:45 35.886666 -115.415577 258 9005ft 296kts
02-Oct-20 19:46 35.887604 -115.521800 273 10964ft 323kts
02-Oct-20 19:47 35.890325 -115.651715 272 11002ft 412kts
02-Oct-20 19:48 35.892763 -115.798468 272 13446ft 426kts
02-Oct-20 19:49 35.896324 -115.936399 281 15743ft 438kts
02-Oct-20 19:50 35.968617 -116.057186 318 18065ft 444kts
02-Oct-20 19:51 36.062743 -116.164137 318 20191ft 457kts
02-Oct-20 19:52 36.158764 -116.274597 318 22114ft 469kts
02-Oct-20 19:53 36.257068 -116.388385 318 23019ft 475kts
02-Oct-20 19:54 36.355862 -116.503423 318 23024ft 475kts
02-Oct-20 19:55 36.454365 -116.618554 318 23024ft 475kts
02-Oct-20 19:56 36.552519 -116.731944 321 23021ft 472kts
02-Oct-20 19:57 36.664063 -116.825006 329 23020ft 473kts
02-Oct-20 19:58 36.778037 -116.911303 329 24103ft 480kts
02-Oct-20 19:59 36.891928 -116.998180 329 26161ft 477kts
02-Oct-20 20:00 37.005893 -117.085467 328 27961ft 476kts
02-Oct-20 20:01 37.118887 -117.172332 329 29816ft 469kts
02-Oct-20 20:02 37.231267 -117.258764 329 31412ft 465kts
02-Oct-20 20:03 37.337021 -117.351667 320 32799ft 462kts
02-Oct-20 20:04 37.424692 -117.469622 298 34010ft 460kts
02-Oct-20 20:05 37.454522 -117.629327 277 34142ft 479kts
02-Oct-20 20:06 37.470275 -117.795417 277 34112ft 479kts
02-Oct-20 20:07 37.486557 -117.962126 277 34101ft 479kts
02-Oct-20 20:08 37.502681 -118.128451 277 34099ft 479kts
02-Oct-20 20:09 37.518608 -118.295149 277 34099ft 479kts
02-Oct-20 20:10 37.534318 -118.462104 277 34129ft 480kts
02-Oct-20 20:11 37.549796 -118.629217 277 34243ft 480kts
02-Oct-20 20:12 37.565004 -118.796479 276 34331ft 480kts
02-Oct-20 20:13 37.580027 -118.963468 275 34368ft 479kts
02-Oct-20 20:14 37.594644 -119.129313 275 34372ft 475kts
02-Oct-20 20:15 37.609054 -119.295544 275 34372ft 475kts
02-Oct-20 20:16 37.623192 -119.461075 275 34372ft 475kts
02-Oct-20 20:17 37.637100 -119.626616 275 34324ft 475kts
02-Oct-20 20:18 37.650803 -119.792934 274 34092ft 475kts
02-Oct-20 20:19 37.663898 -119.954208 274 33161ft 454kts
02-Oct-20 20:20 37.676577 -120.113143 275 30267ft 460kts
02-Oct-20 20:21 37.689278 -120.274889 275 27108ft 464kts
02-Oct-20 20:22 37.695593 -120.431527 264 26727ft 430kts
02-Oct-20 20:23 37.678399 -120.581511 261 24274ft 427kts
02-Oct-20 20:24 37.661016 -120.728730 261 22143ft 416kts
02-Oct-20 20:25 37.644233 -120.868854 261 20121ft 391kts
02-Oct-20 20:26 37.627597 -121.003131 260 18073ft 382kts
02-Oct-20 20:27 37.610129 -121.133443 259 16133ft 372kts
02-Oct-20 20:28 37.593036 -121.259991 258 14294ft 358kts
02-Oct-20 20:29 37.578868 -121.381830 260 12602ft 343kts
02-Oct-20 20:31 37.565273 -121.499798 260 10971ft 331kts
02-Oct-20 20:32 37.551717 -121.614453 258 10016ft 330kts
02-Oct-20 20:33 37.528247 -121.719188 252 8679ft 288kts
02-Oct-20 20:34 37.505868 -121.812550 252 7826ft 264kts
02-Oct-20 20:35 37.484230 -121.900586 250 6981ft 265kts
02-Oct-20 20:36 37.461232 -121.988641 261 6963ft 253kts
02-Oct-20 20:37 37.482420 -122.051708 298 6838ft 226kts
02-Oct-20 20:38 37.509881 -122.114605 295 6010ft 184kts
02-Oct-20 20:39 37.531505 -122.166184 295 4890ft 158kts
02-Oct-20 20:40 37.551474 -122.214168 296 3113ft 150kts
02-Oct-20 20:41 37.569056 -122.256432 296 1712ft 133kts
02-Oct-20 20:42 37.586784 -122.298902 297 1062ft 140kts
02-Oct-20 20:43 37.604038 -122.340092 297 362ft 126kts
02-Oct-20 20:44 37.618975 -122.375618 299 23ft 58kts
02-Oct-20 20:45 37.623721 -122.386901 297 28ft 31kts
02-Oct-20 20:46 37.620157 -122.392280 183 32ft 18kts
02-Oct-20 20:47 37.617792 -122.389548 204 32ft 4kts
02-Oct-20 20:47 37.617718 -122.389591 205 32ft 0kts
02-Oct-20 20:48 37.617718 -122.389591 205 32ft 0kts
02-Oct-20 20:50 37.617718 -122.389591 205 32ft 0kts
02-Oct-20 20:50 37.617718 -122.389591 205 32ft 0kts
02-Oct-20 20:51 37.617718 -122.389591 205 32ft 0kts

Navigation Log

Ident Type
Flight plan parsing failed, navigation log unavailable